sensor_id;sensor_type;location;lat;lon;timestamp;pressure;altitude;pressure_sealevel;temperature;humidity
40013;BME280;37387;42.672;23.334;2023-07-08T00:04:14;947.2;;;19.2;100.0
40013;BME280;37387;42.672;23.334;2023-07-08T00:14:14;947.0;;;19.1;100.0
40013;BME280;37387;42.672;23.334;2023-07-08T00:18:14;947.0;;;19.2;100.0
40013;BME280;37387;42.672;23.334;2023-07-08T00:19:14;947.0;;;19.1;100.0
40013;BME280;37387;42.672;23.334;2023-07-08T00:21:15;947.0;;;19.0;100.0
40013;BME280;37387;42.672;23.334;2023-07-08T00:24:14;947.0;;;18.9;100.0
40013;BME280;37387;42.672;23.334;2023-07-08T00:28:16;946.9;;;18.8;100.0
40013;BME280;37387;42.672;23.334;2023-07-08T00:32:14;946.9;;;18.9;100.0
40013;BME280;37387;42.672;23.334;2023-07-08T00:34:14;946.9;;;18.8;100.0
40013;BME280;37387;42.672;23.334;2023-07-08T00:36:14;946.9;;;18.7;100.0
40013;BME280;37387;42.672;23.334;2023-07-08T00:45:15;946.8;;;18.6;100.0
40013;BME280;37387;42.672;23.334;2023-07-08T01:01:14;946.7;;;18.5;100.0
40013;BME280;37387;42.672;23.334;2023-07-08T01:06:14;946.7;;;18.6;100.0
40013;BME280;37387;42.672;23.334;2023-07-08T01:09:14;946.7;;;18.5;100.0
40013;BME280;37387;42.672;23.334;2023-07-08T01:18:14;946.5;;;18.4;100.0
40013;BME280;37387;42.672;23.334;2023-07-08T01:20:14;946.5;;;18.3;100.0
40013;BME280;37387;42.672;23.334;2023-07-08T01:26:14;946.5;;;18.3;100.0
40013;BME280;37387;42.672;23.334;2023-07-08T01:36:14;946.5;;;18.4;100.0
40013;BME280;37387;42.672;23.334;2023-07-08T01:37:14;946.5;;;18.3;100.0
40013;BME280;37387;42.672;23.334;2023-07-08T01:47:15;946.5;;;18.4;100.0
40013;BME280;37387;42.672;23.334;2023-07-08T01:50:14;946.5;;;18.3;100.0
40013;BME280;37387;42.672;23.334;2023-07-08T01:52:14;946.4;;;18.4;100.0
40013;BME280;37387;42.672;23.334;2023-07-08T01:56:14;946.4;;;18.3;100.0
40013;BME280;37387;42.672;23.334;2023-07-08T02:00:14;946.4;;;18.2;100.0
40013;BME280;37387;42.672;23.334;2023-07-08T02:01:14;946.3;;;18.3;100.0
40013;BME280;37387;42.672;23.334;2023-07-08T02:03:14;946.3;;;18.2;100.0
40013;BME280;37387;42.672;23.334;2023-07-08T02:05:14;946.3;;;18.3;100.0
40013;BME280;37387;42.672;23.334;2023-07-08T02:06:14;946.3;;;18.2;100.0
40013;BME280;37387;42.672;23.334;2023-07-08T02:09:14;946.4;;;18.3;100.0
40013;BME280;37387;42.672;23.334;2023-07-08T02:13:14;946.5;;;18.2;100.0
40013;BME280;37387;42.672;23.334;2023-07-08T02:17:14;946.6;;;18.3;100.0
40013;BME280;37387;42.672;23.334;2023-07-08T02:18:14;946.6;;;18.2;100.0
40013;BME280;37387;42.672;23.334;2023-07-08T02:25:14;946.7;;;18.3;100.0
40013;BME280;37387;42.672;23.334;2023-07-08T02:26:14;946.7;;;18.2;100.0
40013;BME280;37387;42.672;23.334;2023-07-08T02:31:14;946.7;;;18.3;100.0
40013;BME280;37387;42.672;23.334;2023-07-08T02:37:14;946.8;;;18.4;100.0
40013;BME280;37387;42.672;23.334;2023-07-08T02:38:14;946.9;;;18.3;100.0
40013;BME280;37387;42.672;23.334;2023-07-08T02:41:14;946.8;;;18.2;100.0
40013;BME280;37387;42.672;23.334;2023-07-08T02:47:14;946.9;;;18.3;100.0
40013;BME280;37387;42.672;23.334;2023-07-08T02:48:14;946.9;;;18.2;100.0
40013;BME280;37387;42.672;23.334;2023-07-08T02:49:14;946.9;;;18.3;100.0
40013;BME280;37387;42.672;23.334;2023-07-08T02:50:14;946.9;;;18.2;100.0
40013;BME280;37387;42.672;23.334;2023-07-08T03:05:14;947.0;;;18.3;100.0
40013;BME280;37387;42.672;23.334;2023-07-08T03:07:14;947.0;;;18.2;100.0
40013;BME280;37387;42.672;23.334;2023-07-08T03:12:14;947.0;;;18.3;100.0
40013;BME280;37387;42.672;23.334;2023-07-08T03:19:14;947.0;;;18.4;100.0
40013;BME280;37387;42.672;23.334;2023-07-08T03:22:13;947.0;;;18.5;100.0
40013;BME280;37387;42.672;23.334;2023-07-08T03:24:14;947.0;;;18.7;100.0
40013;BME280;37387;42.672;23.334;2023-07-08T03:25:14;947.0;;;18.8;100.0
40013;BME280;37387;42.672;23.334;2023-07-08T03:27:14;946.9;;;18.7;100.0
40013;BME280;37387;42.672;23.334;2023-07-08T03:28:14;947.0;;;18.6;100.0
40013;BME280;37387;42.672;23.334;2023-07-08T03:29:14;946.9;;;18.7;100.0
40013;BME280;37387;42.672;23.334;2023-07-08T03:30:14;946.9;;;18.8;100.0
40013;BME280;37387;42.672;23.334;2023-07-08T03:31:14;946.9;;;18.9;100.0
40013;BME280;37387;42.672;23.334;2023-07-08T03:32:14;947.0;;;19.0;100.0
40013;BME280;37387;42.672;23.334;2023-07-08T03:33:14;947.0;;;19.2;100.0
40013;BME280;37387;42.672;23.334;2023-07-08T03:34:14;947.0;;;19.1;100.0
40013;BME280;37387;42.672;23.334;2023-07-08T03:35:14;947.0;;;19.2;100.0
40013;BME280;37387;42.672;23.334;2023-07-08T03:36:14;947.0;;;19.4;100.0
40013;BME280;37387;42.672;23.334;2023-07-08T03:37:14;947.0;;;19.7;100.0
40013;BME280;37387;42.672;23.334;2023-07-08T03:38:14;947.0;;;19.9;100.0
40013;BME280;37387;42.672;23.334;2023-07-08T03:39:14;947.0;;;20.2;100.0
40013;BME280;37387;42.672;23.334;2023-07-08T03:40:14;947.0;;;20.4;100.0
40013;BME280;37387;42.672;23.334;2023-07-08T03:41:14;947.0;;;20.6;100.0
40013;BME280;37387;42.672;23.334;2023-07-08T03:43:14;947.0;;;20.5;100.0
40013;BME280;37387;42.672;23.334;2023-07-08T03:49:14;947.0;;;20.6;100.0
40013;BME280;37387;42.672;23.334;2023-07-08T03:50:16;947.0;;;20.7;100.0
40013;BME280;37387;42.672;23.334;2023-07-08T03:51:15;947.0;;;21.0;100.0
40013;BME280;37387;42.672;23.334;2023-07-08T03:54:14;947.0;;;21.3;100.0
40013;BME280;37387;42.672;23.334;2023-07-08T03:55:14;947.1;;;21.5;100.0
40013;BME280;37387;42.672;23.334;2023-07-08T03:56:14;947.1;;;21.7;100.0
40013;BME280;37387;42.672;23.334;2023-07-08T03:57:14;947.1;;;21.5;100.0
40013;BME280;37387;42.672;23.334;2023-07-08T03:58:14;947.1;;;21.8;100.0
40013;BME280;37387;42.672;23.334;2023-07-08T03:59:14;947.1;;;21.7;100.0
40013;BME280;37387;42.672;23.334;2023-07-08T04:00:14;947.1;;;21.6;100.0
40013;BME280;37387;42.672;23.334;2023-07-08T04:01:14;947.1;;;22.0;100.0
40013;BME280;37387;42.672;23.334;2023-07-08T04:02:14;947.0;;;22.1;100.0
40013;BME280;37387;42.672;23.334;2023-07-08T04:03:14;947.1;;;22.3;100.0
40013;BME280;37387;42.672;23.334;2023-07-08T04:04:14;947.1;;;22.4;100.0
40013;BME280;37387;42.672;23.334;2023-07-08T04:06:14;947.0;;;22.7;100.0
40013;BME280;37387;42.672;23.334;2023-07-08T04:07:14;947.0;;;22.8;100.0
40013;BME280;37387;42.672;23.334;2023-07-08T04:08:14;947.0;;;22.3;100.0
40013;BME280;37387;42.672;23.334;2023-07-08T04:09:14;947.1;;;22.1;100.0
40013;BME280;37387;42.672;23.334;2023-07-08T04:10:14;947.1;;;22.2;100.0
40013;BME280;37387;42.672;23.334;2023-07-08T04:11:15;947.1;;;22.6;100.0
40013;BME280;37387;42.672;23.334;2023-07-08T04:12:14;947.1;;;22.9;100.0
40013;BME280;37387;42.672;23.334;2023-07-08T04:14:14;947.2;;;23.2;98.9
40013;BME280;37387;42.672;23.334;2023-07-08T04:15:14;947.2;;;23.6;96.5
40013;BME280;37387;42.672;23.334;2023-07-08T04:16:14;947.2;;;23.7;92.6
40013;BME280;37387;42.672;23.334;2023-07-08T04:17:14;947.2;;;23.6;92.5
40013;BME280;37387;42.672;23.334;2023-07-08T04:18:14;947.2;;;23.7;91.4
40013;BME280;37387;42.672;23.334;2023-07-08T04:19:14;947.2;;;23.8;91.8
40013;BME280;37387;42.672;23.334;2023-07-08T04:20:14;947.3;;;23.3;89.1
40013;BME280;37387;42.672;23.334;2023-07-08T04:21:14;947.2;;;23.7;93.2
40013;BME280;37387;42.672;23.334;2023-07-08T04:22:14;947.2;;;24.1;90.3
40013;BME280;37387;42.672;23.334;2023-07-08T04:23:14;947.2;;;23.7;87.0
40013;BME280;37387;42.672;23.334;2023-07-08T04:24:14;947.3;;;23.9;90.2
40013;BME280;37387;42.672;23.334;2023-07-08T04:25:14;947.2;;;24.2;88.6
40013;BME280;37387;42.672;23.334;2023-07-08T04:26:14;947.2;;;24.4;85.4
40013;BME280;37387;42.672;23.334;2023-07-08T04:27:14;947.2;;;24.3;83.5
40013;BME280;37387;42.672;23.334;2023-07-08T04:28:14;947.2;;;24.7;85.3
40013;BME280;37387;42.672;23.334;2023-07-08T04:29:14;947.2;;;24.5;80.6
40013;BME280;37387;42.672;23.334;2023-07-08T04:30:19;947.3;;;24.6;82.5
40013;BME280;37387;42.672;23.334;2023-07-08T04:31:14;947.3;;;24.9;80.6
40013;BME280;37387;42.672;23.334;2023-07-08T04:32:14;947.3;;;25.1;79.2
40013;BME280;37387;42.672;23.334;2023-07-08T04:33:14;947.4;;;25.0;79.2
40013;BME280;37387;42.672;23.334;2023-07-08T04:34:14;947.4;;;24.6;79.2
40013;BME280;37387;42.672;23.334;2023-07-08T04:35:14;947.4;;;24.8;81.3
40013;BME280;37387;42.672;23.334;2023-07-08T04:36:14;947.4;;;25.5;81.3
40013;BME280;37387;42.672;23.334;2023-07-08T04:37:14;947.4;;;25.4;75.0
40013;BME280;37387;42.672;23.334;2023-07-08T04:38:14;947.4;;;25.2;75.0
40013;BME280;37387;42.672;23.334;2023-07-08T04:39:14;947.4;;;25.8;76.0
40013;BME280;37387;42.672;23.334;2023-07-08T04:40:16;947.4;;;26.0;73.4
40013;BME280;37387;42.672;23.334;2023-07-08T04:42:14;947.5;;;25.9;71.3
40013;BME280;37387;42.672;23.334;2023-07-08T04:43:14;947.5;;;25.6;71.8
40013;BME280;37387;42.672;23.334;2023-07-08T04:45:15;947.4;;;25.8;73.3
40013;BME280;37387;42.672;23.334;2023-07-08T04:46:17;947.5;;;25.4;71.9
40013;BME280;37387;42.672;23.334;2023-07-08T04:47:14;947.4;;;24.9;74.8
40013;BME280;37387;42.672;23.334;2023-07-08T04:48:14;947.3;;;25.1;76.5
40013;BME280;37387;42.672;23.334;2023-07-08T04:49:14;947.5;;;25.4;75.9
40013;BME280;37387;42.672;23.334;2023-07-08T04:50:14;947.5;;;25.8;74.9
40013;BME280;37387;42.672;23.334;2023-07-08T04:51:14;947.4;;;25.4;72.5
40013;BME280;37387;42.672;23.334;2023-07-08T04:52:14;947.4;;;24.9;74.3
40013;BME280;37387;42.672;23.334;2023-07-08T04:53:14;947.4;;;24.8;75.7
40013;BME280;37387;42.672;23.334;2023-07-08T04:54:14;947.3;;;24.9;77.5
40013;BME280;37387;42.672;23.334;2023-07-08T04:55:14;947.4;;;24.4;77.7
40013;BME280;37387;42.672;23.334;2023-07-08T04:56:14;947.4;;;25.1;76.9
40013;BME280;37387;42.672;23.334;2023-07-08T04:57:14;947.4;;;25.4;76.9
40013;BME280;37387;42.672;23.334;2023-07-08T04:58:14;947.4;;;25.3;73.9
40013;BME280;37387;42.672;23.334;2023-07-08T04:59:15;947.5;;;24.8;76.5
40013;BME280;37387;42.672;23.334;2023-07-08T05:00:14;947.5;;;24.4;76.5
40013;BME280;37387;42.672;23.334;2023-07-08T05:01:14;947.5;;;25.0;81.3
40013;BME280;37387;42.672;23.334;2023-07-08T05:02:14;947.5;;;25.5;77.6
40013;BME280;37387;42.672;23.334;2023-07-08T05:04:14;947.5;;;25.9;74.7
40013;BME280;37387;42.672;23.334;2023-07-08T05:05:14;947.6;;;26.2;70.7
40013;BME280;37387;42.672;23.334;2023-07-08T05:06:14;947.6;;;26.5;70.7
40013;BME280;37387;42.672;23.334;2023-07-08T05:07:14;947.7;;;26.4;69.2
40013;BME280;37387;42.672;23.334;2023-07-08T05:08:14;947.7;;;26.3;69.3
40013;BME280;37387;42.672;23.334;2023-07-08T05:09:14;947.7;;;26.2;69.3
40013;BME280;37387;42.672;23.334;2023-07-08T05:10:14;947.6;;;26.3;69.1
40013;BME280;37387;42.672;23.334;2023-07-08T05:11:14;947.7;;;26.7;68.8
40013;BME280;37387;42.672;23.334;2023-07-08T05:12:14;947.7;;;26.2;67.5
40013;BME280;37387;42.672;23.334;2023-07-08T05:13:14;947.7;;;26.9;69.5
40013;BME280;37387;42.672;23.334;2023-07-08T05:14:14;947.7;;;26.7;66.7
40013;BME280;37387;42.672;23.334;2023-07-08T05:15:14;947.7;;;27.0;66.7
40013;BME280;37387;42.672;23.334;2023-07-08T05:16:14;947.7;;;26.3;65.3
40013;BME280;37387;42.672;23.334;2023-07-08T05:17:14;947.7;;;25.7;68.2
40013;BME280;37387;42.672;23.334;2023-07-08T05:18:14;947.6;;;25.5;71.3
40013;BME280;37387;42.672;23.334;2023-07-08T05:19:14;947.7;;;25.7;72.9
40013;BME280;37387;42.672;23.334;2023-07-08T05:21:14;947.6;;;25.3;71.8
40013;BME280;37387;42.672;23.334;2023-07-08T05:22:14;947.6;;;25.8;74.0
40013;BME280;37387;42.672;23.334;2023-07-08T05:23:14;947.6;;;25.6;71.9
40013;BME280;37387;42.672;23.334;2023-07-08T05:24:14;947.7;;;25.0;72.6
40013;BME280;37387;42.672;23.334;2023-07-08T05:25:14;947.6;;;25.2;75.3
40013;BME280;37387;42.672;23.334;2023-07-08T05:26:14;947.6;;;25.7;75.3
40013;BME280;37387;42.672;23.334;2023-07-08T05:27:14;947.7;;;26.4;73.1
40013;BME280;37387;42.672;23.334;2023-07-08T05:28:14;947.8;;;26.7;69.7
40013;BME280;37387;42.672;23.334;2023-07-08T05:29:14;947.7;;;27.4;68.5
40013;BME280;37387;42.672;23.334;2023-07-08T05:30:15;947.8;;;28.0;64.6
40013;BME280;37387;42.672;23.334;2023-07-08T05:31:14;947.8;;;28.4;62.2
40013;BME280;37387;42.672;23.334;2023-07-08T05:32:14;947.8;;;27.5;60.7
40013;BME280;37387;42.672;23.334;2023-07-08T05:33:14;947.8;;;26.9;62.9
40013;BME280;37387;42.672;23.334;2023-07-08T05:34:14;947.8;;;26.5;67.4
40013;BME280;37387;42.672;23.334;2023-07-08T05:35:14;947.8;;;26.3;67.4
40013;BME280;37387;42.672;23.334;2023-07-08T05:36:14;947.8;;;25.9;67.7
40013;BME280;37387;42.672;23.334;2023-07-08T05:37:14;947.7;;;25.6;70.0
40013;BME280;37387;42.672;23.334;2023-07-08T05:39:14;947.7;;;25.4;70.3
40013;BME280;37387;42.672;23.334;2023-07-08T05:40:15;947.7;;;25.2;72.0
40013;BME280;37387;42.672;23.334;2023-07-08T05:41:14;947.7;;;24.8;72.3
40013;BME280;37387;42.672;23.334;2023-07-08T05:43:14;947.6;;;25.5;76.3
40013;BME280;37387;42.672;23.334;2023-07-08T05:45:14;947.7;;;25.8;72.1
40013;BME280;37387;42.672;23.334;2023-07-08T05:46:14;947.7;;;25.6;70.4
40013;BME280;37387;42.672;23.334;2023-07-08T05:47:14;947.7;;;26.4;71.8
40013;BME280;37387;42.672;23.334;2023-07-08T05:48:14;947.7;;;26.8;67.6
40013;BME280;37387;42.672;23.334;2023-07-08T05:49:14;947.8;;;26.5;66.0
40013;BME280;37387;42.672;23.334;2023-07-08T05:50:14;947.8;;;27.3;66.4
40013;BME280;37387;42.672;23.334;2023-07-08T05:51:14;947.8;;;28.4;63.7
40013;BME280;37387;42.672;23.334;2023-07-08T05:52:14;947.9;;;28.7;60.3
40013;BME280;37387;42.672;23.334;2023-07-08T05:54:14;947.9;;;28.0;59.1
40013;BME280;37387;42.672;23.334;2023-07-08T05:55:14;947.9;;;28.4;60.3
40013;BME280;37387;42.672;23.334;2023-07-08T05:56:14;947.9;;;28.5;60.0
40013;BME280;37387;42.672;23.334;2023-07-08T05:57:14;947.9;;;27.7;60.8
40013;BME280;37387;42.672;23.334;2023-07-08T05:58:14;947.9;;;27.6;60.8
40013;BME280;37387;42.672;23.334;2023-07-08T05:59:14;947.9;;;27.7;61.3
40013;BME280;37387;42.672;23.334;2023-07-08T06:00:14;947.9;;;27.9;60.6
40013;BME280;37387;42.672;23.334;2023-07-08T06:01:14;947.9;;;27.5;60.7
40013;BME280;37387;42.672;23.334;2023-07-08T06:02:14;947.9;;;26.6;60.7
40013;BME280;37387;42.672;23.334;2023-07-08T06:03:14;947.9;;;27.0;64.4
40013;BME280;37387;42.672;23.334;2023-07-08T06:04:14;947.9;;;27.4;62.5
40013;BME280;37387;42.672;23.334;2023-07-08T06:05:14;947.9;;;27.7;62.7
40013;BME280;37387;42.672;23.334;2023-07-08T06:06:14;947.9;;;27.6;60.6
40013;BME280;37387;42.672;23.334;2023-07-08T06:07:14;947.9;;;27.5;61.6
40013;BME280;37387;42.672;23.334;2023-07-08T06:08:14;947.9;;;27.9;61.3
40013;BME280;37387;42.672;23.334;2023-07-08T06:09:14;948.0;;;27.5;60.6
40013;BME280;37387;42.672;23.334;2023-07-08T06:10:14;948.0;;;27.1;62.2
40013;BME280;37387;42.672;23.334;2023-07-08T06:11:14;947.9;;;26.4;63.3
40013;BME280;37387;42.672;23.334;2023-07-08T06:12:14;947.9;;;26.3;65.9
40013;BME280;37387;42.672;23.334;2023-07-08T06:13:14;947.9;;;25.6;67.2
40013;BME280;37387;42.672;23.334;2023-07-08T06:14:14;947.9;;;25.0;70.6
40013;BME280;37387;42.672;23.334;2023-07-08T06:15:14;947.9;;;24.5;73.4
40013;BME280;37387;42.672;23.334;2023-07-08T06:17:15;947.9;;;23.8;78.8
40013;BME280;37387;42.672;23.334;2023-07-08T06:19:14;947.8;;;23.7;85.8
40013;BME280;37387;42.672;23.334;2023-07-08T06:20:14;947.8;;;23.9;85.5
40013;BME280;37387;42.672;23.334;2023-07-08T06:21:14;947.8;;;23.7;83.0
40013;BME280;37387;42.672;23.334;2023-07-08T06:22:14;947.9;;;23.6;86.7
40013;BME280;37387;42.672;23.334;2023-07-08T06:23:14;947.9;;;23.2;85.8
40013;BME280;37387;42.672;23.334;2023-07-08T06:24:14;947.9;;;23.1;89.0
40013;BME280;37387;42.672;23.334;2023-07-08T06:25:14;948.0;;;22.9;90.5
40013;BME280;37387;42.672;23.334;2023-07-08T06:26:14;948.0;;;22.5;93.1
40013;BME280;37387;42.672;23.334;2023-07-08T06:29:14;948.0;;;22.7;97.9
40013;BME280;37387;42.672;23.334;2023-07-08T06:30:14;948.0;;;22.6;96.9
40013;BME280;37387;42.672;23.334;2023-07-08T06:32:14;948.0;;;22.7;96.9
40013;BME280;37387;42.672;23.334;2023-07-08T06:34:14;948.0;;;22.6;96.2
40013;BME280;37387;42.672;23.334;2023-07-08T06:35:14;948.0;;;22.7;94.7
40013;BME280;37387;42.672;23.334;2023-07-08T06:36:14;948.0;;;22.9;93.7
40013;BME280;37387;42.672;23.334;2023-07-08T06:37:14;948.0;;;23.0;93.7
40013;BME280;37387;42.672;23.334;2023-07-08T06:40:14;948.0;;;22.7;94.2
40013;BME280;37387;42.672;23.334;2023-07-08T06:42:14;948.0;;;22.6;94.6
40013;BME280;37387;42.672;23.334;2023-07-08T06:43:14;948.0;;;22.7;92.8
40013;BME280;37387;42.672;23.334;2023-07-08T06:44:14;947.9;;;22.6;93.2
40013;BME280;37387;42.672;23.334;2023-07-08T06:45:14;948.0;;;22.7;92.0
40013;BME280;37387;42.672;23.334;2023-07-08T06:46:14;947.9;;;22.8;89.2
40013;BME280;37387;42.672;23.334;2023-07-08T06:47:14;947.9;;;22.5;89.2
40013;BME280;37387;42.672;23.334;2023-07-08T06:48:14;947.9;;;22.6;93.5
40013;BME280;37387;42.672;23.334;2023-07-08T06:50:14;947.8;;;22.5;93.7
40013;BME280;37387;42.672;23.334;2023-07-08T06:51:14;947.9;;;22.9;92.9
40013;BME280;37387;42.672;23.334;2023-07-08T06:52:14;947.9;;;23.2;92.2
40013;BME280;37387;42.672;23.334;2023-07-08T06:53:14;947.9;;;23.3;87.2
40013;BME280;37387;42.672;23.334;2023-07-08T06:55:14;947.9;;;23.4;88.0
40013;BME280;37387;42.672;23.334;2023-07-08T06:56:14;947.9;;;23.2;86.2
40013;BME280;37387;42.672;23.334;2023-07-08T06:57:14;948.0;;;23.1;88.5
40013;BME280;37387;42.672;23.334;2023-07-08T06:58:14;947.9;;;23.0;87.7
40013;BME280;37387;42.672;23.334;2023-07-08T06:59:14;947.9;;;22.8;87.6
40013;BME280;37387;42.672;23.334;2023-07-08T07:00:14;947.9;;;22.6;89.5
40013;BME280;37387;42.672;23.334;2023-07-08T07:01:14;947.9;;;22.5;88.2
40013;BME280;37387;42.672;23.334;2023-07-08T07:02:14;947.9;;;22.7;85.6
40013;BME280;37387;42.672;23.334;2023-07-08T07:03:14;947.9;;;22.8;85.6
40013;BME280;37387;42.672;23.334;2023-07-08T07:04:14;947.9;;;22.9;85.8
40013;BME280;37387;42.672;23.334;2023-07-08T07:05:14;947.9;;;23.0;85.8
40013;BME280;37387;42.672;23.334;2023-07-08T07:06:14;947.9;;;23.2;86.2
40013;BME280;37387;42.672;23.334;2023-07-08T07:08:14;947.9;;;23.1;84.4
40013;BME280;37387;42.672;23.334;2023-07-08T07:10:14;948.0;;;23.2;84.5
40013;BME280;37387;42.672;23.334;2023-07-08T07:11:14;948.0;;;22.7;84.9
40013;BME280;37387;42.672;23.334;2023-07-08T07:12:14;947.8;;;22.6;85.6
40013;BME280;37387;42.672;23.334;2023-07-08T07:14:14;947.9;;;22.7;86.5
40013;BME280;37387;42.672;23.334;2023-07-08T07:15:14;947.9;;;23.1;83.7
40013;BME280;37387;42.672;23.334;2023-07-08T07:16:15;947.9;;;23.9;82.2
40013;BME280;37387;42.672;23.334;2023-07-08T07:17:14;947.9;;;24.8;77.5
40013;BME280;37387;42.672;23.334;2023-07-08T07:18:14;947.9;;;25.4;71.7
40013;BME280;37387;42.672;23.334;2023-07-08T07:19:14;947.9;;;25.7;69.3
40013;BME280;37387;42.672;23.334;2023-07-08T07:20:14;947.9;;;26.5;67.3
40013;BME280;37387;42.672;23.334;2023-07-08T07:21:14;948.1;;;26.8;64.4
40013;BME280;37387;42.672;23.334;2023-07-08T07:22:14;948.1;;;27.0;62.6
40013;BME280;37387;42.672;23.334;2023-07-08T07:23:14;948.1;;;26.9;61.8
40013;BME280;37387;42.672;23.334;2023-07-08T07:24:14;948.1;;;27.0;61.8
40013;BME280;37387;42.672;23.334;2023-07-08T07:25:14;948.1;;;27.1;61.6
40013;BME280;37387;42.672;23.334;2023-07-08T07:26:14;948.1;;;27.4;61.0
40013;BME280;37387;42.672;23.334;2023-07-08T07:27:14;948.1;;;27.3;61.3
40013;BME280;37387;42.672;23.334;2023-07-08T07:28:14;948.2;;;27.6;59.4
40013;BME280;37387;42.672;23.334;2023-07-08T07:29:15;948.2;;;28.1;59.4
40013;BME280;37387;42.672;23.334;2023-07-08T07:31:14;948.2;;;28.7;57.2
40013;BME280;37387;42.672;23.334;2023-07-08T07:33:14;948.1;;;28.1;55.2
40013;BME280;37387;42.672;23.334;2023-07-08T07:34:14;948.2;;;27.3;56.2
40013;BME280;37387;42.672;23.334;2023-07-08T07:35:14;948.3;;;27.4;59.5
40013;BME280;37387;42.672;23.334;2023-07-08T07:36:14;948.2;;;27.0;58.8
40013;BME280;37387;42.672;23.334;2023-07-08T07:37:14;948.2;;;26.6;59.6
40013;BME280;37387;42.672;23.334;2023-07-08T07:38:14;948.3;;;26.8;60.7
40013;BME280;37387;42.672;23.334;2023-07-08T07:39:14;948.3;;;26.2;60.5
40013;BME280;37387;42.672;23.334;2023-07-08T07:41:14;948.2;;;26.3;62.2
40013;BME280;37387;42.672;23.334;2023-07-08T07:42:14;948.3;;;26.7;62.1
40013;BME280;37387;42.672;23.334;2023-07-08T07:43:14;948.3;;;27.2;61.7
40013;BME280;37387;42.672;23.334;2023-07-08T07:44:14;948.4;;;26.9;59.6
40013;BME280;37387;42.672;23.334;2023-07-08T07:45:14;948.4;;;26.3;61.1
40013;BME280;37387;42.672;23.334;2023-07-08T07:46:14;948.4;;;26.1;61.1
40013;BME280;37387;42.672;23.334;2023-07-08T07:47:14;948.4;;;25.7;62.6
40013;BME280;37387;42.672;23.334;2023-07-08T07:48:14;948.4;;;25.4;62.6
40013;BME280;37387;42.672;23.334;2023-07-08T07:49:14;948.4;;;25.5;64.4
40013;BME280;37387;42.672;23.334;2023-07-08T07:50:14;948.3;;;24.9;66.0
40013;BME280;37387;42.672;23.334;2023-07-08T07:51:14;948.3;;;24.4;66.0
40013;BME280;37387;42.672;23.334;2023-07-08T07:52:14;948.1;;;24.1;67.9
40013;BME280;37387;42.672;23.334;2023-07-08T07:53:14;948.2;;;24.0;69.2
40013;BME280;37387;42.672;23.334;2023-07-08T07:54:14;948.2;;;23.9;70.0
40013;BME280;37387;42.672;23.334;2023-07-08T07:55:14;948.2;;;24.1;70.9
40013;BME280;37387;42.672;23.334;2023-07-08T07:58:14;948.2;;;24.5;71.8
40013;BME280;37387;42.672;23.334;2023-07-08T08:00:14;948.2;;;24.3;70.6
40013;BME280;37387;42.672;23.334;2023-07-08T08:01:14;948.2;;;24.5;71.4
40013;BME280;37387;42.672;23.334;2023-07-08T08:02:14;948.3;;;24.9;71.1
40013;BME280;37387;42.672;23.334;2023-07-08T08:03:14;948.3;;;25.4;69.2
40013;BME280;37387;42.672;23.334;2023-07-08T08:04:14;948.2;;;25.8;66.1
40013;BME280;37387;42.672;23.334;2023-07-08T08:05:14;948.2;;;25.6;66.1
40013;BME280;37387;42.672;23.334;2023-07-08T08:06:14;948.3;;;25.7;65.8
40013;BME280;37387;42.672;23.334;2023-07-08T08:07:14;948.3;;;25.4;65.8
40013;BME280;37387;42.672;23.334;2023-07-08T08:08:14;948.3;;;25.1;65.9
40013;BME280;37387;42.672;23.334;2023-07-08T08:09:14;948.3;;;24.6;68.6
40013;BME280;37387;42.672;23.334;2023-07-08T08:10:14;948.3;;;24.4;68.6
40013;BME280;37387;42.672;23.334;2023-07-08T08:12:14;948.2;;;24.3;68.7
40013;BME280;37387;42.672;23.334;2023-07-08T08:15:14;948.3;;;24.2;70.9
40013;BME280;37387;42.672;23.334;2023-07-08T08:16:14;948.2;;;24.1;71.8
40013;BME280;37387;42.672;23.334;2023-07-08T08:17:14;948.2;;;23.9;71.9
40013;BME280;37387;42.672;23.334;2023-07-08T08:18:14;948.2;;;23.7;72.6
40013;BME280;37387;42.672;23.334;2023-07-08T08:19:14;948.2;;;24.0;73.9
40013;BME280;37387;42.672;23.334;2023-07-08T08:20:14;948.2;;;24.4;72.9
40013;BME280;37387;42.672;23.334;2023-07-08T08:21:14;948.3;;;24.5;71.5
40013;BME280;37387;42.672;23.334;2023-07-08T08:22:14;948.3;;;24.8;72.0
40013;BME280;37387;42.672;23.334;2023-07-08T08:23:14;948.2;;;25.1;70.7
40013;BME280;37387;42.672;23.334;2023-07-08T08:24:14;948.3;;;25.6;68.9
40013;BME280;37387;42.672;23.334;2023-07-08T08:25:14;948.2;;;26.2;66.5
40013;BME280;37387;42.672;23.334;2023-07-08T08:26:14;948.3;;;26.7;64.8
40013;BME280;37387;42.672;23.334;2023-07-08T08:27:14;948.3;;;26.9;62.0
40013;BME280;37387;42.672;23.334;2023-07-08T08:28:14;948.2;;;27.2;60.4
40013;BME280;37387;42.672;23.334;2023-07-08T08:29:14;948.3;;;27.8;59.1
40013;BME280;37387;42.672;23.334;2023-07-08T08:30:14;948.3;;;27.3;58.7
40013;BME280;37387;42.672;23.334;2023-07-08T08:31:14;948.3;;;28.0;58.7
40013;BME280;37387;42.672;23.334;2023-07-08T08:32:14;948.3;;;28.2;57.1
40013;BME280;37387;42.672;23.334;2023-07-08T08:33:14;948.3;;;28.5;56.9
40013;BME280;37387;42.672;23.334;2023-07-08T08:34:14;948.3;;;28.7;54.9
40013;BME280;37387;42.672;23.334;2023-07-08T08:35:14;948.3;;;28.4;54.9
40013;BME280;37387;42.672;23.334;2023-07-08T08:36:14;948.2;;;28.1;55.4
40013;BME280;37387;42.672;23.334;2023-07-08T08:37:14;948.2;;;28.2;56.4
40013;BME280;37387;42.672;23.334;2023-07-08T08:39:14;948.3;;;27.9;57.0
40013;BME280;37387;42.672;23.334;2023-07-08T08:40:15;948.2;;;28.0;57.2
40013;BME280;37387;42.672;23.334;2023-07-08T08:41:15;948.3;;;28.4;56.5
40013;BME280;37387;42.672;23.334;2023-07-08T08:42:16;948.2;;;28.6;56.3
40013;BME280;37387;42.672;23.334;2023-07-08T08:43:14;948.3;;;28.7;54.5
40013;BME280;37387;42.672;23.334;2023-07-08T08:44:14;948.2;;;28.6;54.4
40013;BME280;37387;42.672;23.334;2023-07-08T08:45:16;948.2;;;28.0;55.2
40013;BME280;37387;42.672;23.334;2023-07-08T08:46:16;948.1;;;27.7;56.4
40013;BME280;37387;42.672;23.334;2023-07-08T08:47:16;948.1;;;28.1;56.4
40013;BME280;37387;42.672;23.334;2023-07-08T08:48:15;948.2;;;28.2;56.2
40013;BME280;37387;42.672;23.334;2023-07-08T08:49:16;948.2;;;28.1;55.6
40013;BME280;37387;42.672;23.334;2023-07-08T08:50:25;948.1;;;28.4;55.5
40013;BME280;37387;42.672;23.334;2023-07-08T08:51:14;948.2;;;28.7;54.8
40013;BME280;37387;42.672;23.334;2023-07-08T08:52:14;948.1;;;28.5;54.6
40013;BME280;37387;42.672;23.334;2023-07-08T08:54:14;948.1;;;28.3;54.7
40013;BME280;37387;42.672;23.334;2023-07-08T08:55:14;948.1;;;28.8;54.2